Sir Adrian Johns — BRAVO2 — position and weather

sailwx.info

Track history (hours):
 
Tides and Currents Weather Stations Pressure Air Temp Water Temp Dewpoint Dewpoint Depression Visibility Wind Speed Wind Dir Waves Ship Positions

Sir Adrian Johns

Last reported at 2018-Jun-17 17:16 UTC. Time now 2018-Jun-18 17:34 UTC.
Position N 36°07' W 005°20'.

Length 25 m.

Type: Pilot. MMSI: 236112042.

Date/timePositionNaut miles runAvg speedWind from/ knotsBaromVisibWave heightAir tempDewpointWater temp
2018-Jun-17 17:16N 36°07' W 005°20'2 6.4
2018-Jun-17 17:00N 36°09' W 005°20'0 0.1
2018-Jun-17 16:21N 36°09' W 005°20'0 0.0
2018-Jun-17 15:11N 36°09' W 005°20'0 0.0
2018-Jun-17 15:00N 36°09' W 005°20'0 0.0
2018-Jun-17 14:30N 36°09' W 005°20'0 0.0
2018-Jun-17 14:00N 36°09' W 005°20'1 1.8
2018-Jun-17 13:29N 36°08' W 005°20'2 4.2
2018-Jun-17 13:00N 36°07' W 005°22'1 2.5
2018-Jun-17 12:29N 36°08' W 005°21'1 0.1
2018-Jun-16 16:28N 36°07' W 005°20'1 2.3
2018-Jun-16 16:00N 36°08' W 005°20'0 0.3
2018-Jun-16 15:30N 36°08' W 005°20'1 1.4
2018-Jun-16 15:00N 36°09' W 005°20'1 0.0
2018-Jun-14 17:05N 36°08' W 005°22'214.1
2018-Jun-14 16:58N 36°06' W 005°21'3 5.4
2018-Jun-14 16:27N 36°09' W 005°20'0 0.0
2018-Jun-14 15:59N 36°09' W 005°20'0 0.0
2018-Jun-14 15:27N 36°09' W 005°20'0 0.0
2018-Jun-14 14:58N 36°09' W 005°20'0 0.0
2018-Jun-14 14:26N 36°09' W 005°20'0 0.2
2018-Jun-14 14:00N 36°09' W 005°20'2 0.0
2018-Jun-12 17:27N 36°07' W 005°20'2 2.9
2018-Jun-12 16:54N 36°09' W 005°20'0 0.0
2018-Jun-12 16:30N 36°09' W 005°20'0 0.0
2018-Jun-12 16:00N 36°09' W 005°20'0 0.0
2018-Jun-12 15:29N 36°09' W 005°20'0 0.0
2018-Jun-12 15:00N 36°09' W 005°20'0 0.0
2018-Jun-12 14:28N 36°09' W 005°20'0 0.0
2018-Jun-12 13:56N 36°09' W 005°20'1 1.6
2018-Jun-12 13:29N 36°09' W 005°19'2 4.1
2018-Jun-12 13:00N 36°07' W 005°20'  
Track history (hours):
 
Tides and Currents Weather Stations Pressure Air Temp Water Temp Dewpoint Dewpoint Depression Visibility Wind Speed Wind Dir Waves Ship Positions

Sir Adrian Johns

Last reported at 2018-Jun-17 17:16 UTC. Time now 2018-Jun-18 17:34 UTC.
Position N 36°07' W 005°20'.

Length 25 m.

Type: Pilot. MMSI: 236112042.

Date/timePositionNaut miles runAvg speedWind from/ knotsBaromVisibWave heightAir tempDewpointWater temp
2018-Jun-17 17:16N 36°07' W 005°20'2 6.4
2018-Jun-17 17:00N 36°09' W 005°20'0 0.1
2018-Jun-17 16:21N 36°09' W 005°20'0 0.0
2018-Jun-17 15:11N 36°09' W 005°20'0 0.0
2018-Jun-17 15:00N 36°09' W 005°20'0 0.0
2018-Jun-17 14:30N 36°09' W 005°20'0 0.0
2018-Jun-17 14:00N 36°09' W 005°20'1 1.8
2018-Jun-17 13:29N 36°08' W 005°20'2 4.2
2018-Jun-17 13:00N 36°07' W 005°22'1 2.5
2018-Jun-17 12:29N 36°08' W 005°21'1 0.1
2018-Jun-16 16:28N 36°07' W 005°20'1 2.3
2018-Jun-16 16:00N 36°08' W 005°20'0 0.3
2018-Jun-16 15:30N 36°08' W 005°20'1 1.4
2018-Jun-16 15:00N 36°09' W 005°20'1 0.0
2018-Jun-14 17:05N 36°08' W 005°22'214.1
2018-Jun-14 16:58N 36°06' W 005°21'3 5.4
2018-Jun-14 16:27N 36°09' W 005°20'0 0.0
2018-Jun-14 15:59N 36°09' W 005°20'0 0.0
2018-Jun-14 15:27N 36°09' W 005°20'0 0.0
2018-Jun-14 14:58N 36°09' W 005°20'0 0.0
2018-Jun-14 14:26N 36°09' W 005°20'0 0.2
2018-Jun-14 14:00N 36°09' W 005°20'2 0.0
2018-Jun-12 17:27N 36°07' W 005°20'2 2.9
2018-Jun-12 16:54N 36°09' W 005°20'0 0.0
2018-Jun-12 16:30N 36°09' W 005°20'0 0.0
2018-Jun-12 16:00N 36°09' W 005°20'0 0.0
2018-Jun-12 15:29N 36°09' W 005°20'0 0.0
2018-Jun-12 15:00N 36°09' W 005°20'0 0.0
2018-Jun-12 14:28N 36°09' W 005°20'0 0.0
2018-Jun-12 13:56N 36°09' W 005°20'1 1.6
2018-Jun-12 13:29N 36°09' W 005°19'2 4.1
2018-Jun-12 13:00N 36°07' W 005°20'  

Dump ship's entire track history